sensor_id;sensor_type;location;lat;lon;timestamp;P1;durP1;ratioP1;P2;durP2;ratioP2
16029;SDS011;34770;49.272;11.070;2023-09-30T00:02:21;9.80;;;4.03;;
16029;SDS011;34770;49.272;11.070;2023-09-30T00:04:46;5.78;;;3.63;;
16029;SDS011;34770;49.272;11.070;2023-09-30T00:07:12;9.40;;;3.60;;
16029;SDS011;34770;49.272;11.070;2023-09-30T00:09:37;7.63;;;3.88;;
16029;SDS011;34770;49.272;11.070;2023-09-30T00:12:02;8.93;;;3.95;;
16029;SDS011;34770;49.272;11.070;2023-09-30T00:14:28;7.07;;;3.65;;
16029;SDS011;34770;49.272;11.070;2023-09-30T00:16:54;9.57;;;3.55;;
16029;SDS011;34770;49.272;11.070;2023-09-30T00:19:19;8.20;;;3.60;;
16029;SDS011;34770;49.272;11.070;2023-09-30T00:21:47;8.93;;;4.53;;
16029;SDS011;34770;49.272;11.070;2023-09-30T00:24:13;9.98;;;5.03;;
16029;SDS011;34770;49.272;11.070;2023-09-30T00:26:38;9.30;;;4.40;;
16029;SDS011;34770;49.272;11.070;2023-09-30T00:29:04;8.60;;;3.88;;
16029;SDS011;34770;49.272;11.070;2023-09-30T00:31:30;9.68;;;4.05;;
16029;SDS011;34770;49.272;11.070;2023-09-30T00:33:55;10.50;;;4.07;;
16029;SDS011;34770;49.272;11.070;2023-09-30T00:36:21;9.85;;;4.47;;
16029;SDS011;34770;49.272;11.070;2023-09-30T00:38:46;7.00;;;3.75;;
16029;SDS011;34770;49.272;11.070;2023-09-30T00:41:12;8.82;;;4.55;;
16029;SDS011;34770;49.272;11.070;2023-09-30T00:43:37;9.82;;;4.63;;
16029;SDS011;34770;49.272;11.070;2023-09-30T00:48:54;10.05;;;4.25;;
16029;SDS011;34770;49.272;11.070;2023-09-30T00:51:22;8.48;;;4.10;;
16029;SDS011;34770;49.272;11.070;2023-09-30T00:53:48;11.55;;;4.30;;
16029;SDS011;34770;49.272;11.070;2023-09-30T00:56:17;10.88;;;4.28;;
16029;SDS011;34770;49.272;11.070;2023-09-30T00:58:45;10.75;;;4.43;;
16029;SDS011;34770;49.272;11.070;2023-09-30T01:01:11;13.13;;;4.70;;
16029;SDS011;34770;49.272;11.070;2023-09-30T01:03:37;11.05;;;3.90;;
16029;SDS011;34770;49.272;11.070;2023-09-30T01:06:03;6.10;;;3.35;;
16029;SDS011;34770;49.272;11.070;2023-09-30T01:08:28;6.78;;;3.75;;
16029;SDS011;34770;49.272;11.070;2023-09-30T01:10:54;8.00;;;4.45;;
16029;SDS011;34770;49.272;11.070;2023-09-30T01:13:21;11.65;;;4.95;;
16029;SDS011;34770;49.272;11.070;2023-09-30T01:15:47;7.35;;;4.03;;
16029;SDS011;34770;49.272;11.070;2023-09-30T01:18:12;7.70;;;3.92;;
16029;SDS011;34770;49.272;11.070;2023-09-30T01:20:37;8.82;;;4.45;;
16029;SDS011;34770;49.272;11.070;2023-09-30T01:23:03;10.48;;;4.38;;
16029;SDS011;34770;49.272;11.070;2023-09-30T01:25:29;8.57;;;4.75;;
16029;SDS011;34770;49.272;11.070;2023-09-30T01:27:55;7.93;;;4.05;;
16029;SDS011;34770;49.272;11.070;2023-09-30T01:30:20;8.10;;;3.70;;
16029;SDS011;34770;49.272;11.070;2023-09-30T01:32:47;7.78;;;4.22;;
16029;SDS011;34770;49.272;11.070;2023-09-30T01:35:13;10.75;;;4.85;;
16029;SDS011;34770;49.272;11.070;2023-09-30T01:37:39;10.90;;;4.60;;
16029;SDS011;34770;49.272;11.070;2023-09-30T01:40:04;8.90;;;4.57;;
16029;SDS011;34770;49.272;11.070;2023-09-30T01:42:33;9.93;;;4.15;;
16029;SDS011;34770;49.272;11.070;2023-09-30T01:44:58;7.20;;;4.07;;
16029;SDS011;34770;49.272;11.070;2023-09-30T01:47:24;8.90;;;4.30;;
16029;SDS011;34770;49.272;11.070;2023-09-30T01:49:49;9.32;;;4.25;;
16029;SDS011;34770;49.272;11.070;2023-09-30T01:52:14;8.57;;;4.57;;
16029;SDS011;34770;49.272;11.070;2023-09-30T01:54:40;11.93;;;4.68;;
16029;SDS011;34770;49.272;11.070;2023-09-30T01:57:05;10.23;;;4.78;;
16029;SDS011;34770;49.272;11.070;2023-09-30T01:59:31;9.75;;;4.68;;
16029;SDS011;34770;49.272;11.070;2023-09-30T02:01:56;8.45;;;4.63;;
16029;SDS011;34770;49.272;11.070;2023-09-30T02:04:21;10.95;;;4.38;;
16029;SDS011;34770;49.272;11.070;2023-09-30T02:06:48;7.78;;;4.35;;
16029;SDS011;34770;49.272;11.070;2023-09-30T02:09:13;10.38;;;4.55;;
16029;SDS011;34770;49.272;11.070;2023-09-30T02:11:39;7.97;;;4.30;;
16029;SDS011;34770;49.272;11.070;2023-09-30T02:14:06;10.35;;;4.60;;
16029;SDS011;34770;49.272;11.070;2023-09-30T02:16:31;7.63;;;3.92;;
16029;SDS011;34770;49.272;11.070;2023-09-30T02:18:57;10.90;;;4.85;;
16029;SDS011;34770;49.272;11.070;2023-09-30T02:21:22;10.27;;;4.22;;
16029;SDS011;34770;49.272;11.070;2023-09-30T02:23:47;7.72;;;4.15;;
16029;SDS011;34770;49.272;11.070;2023-09-30T02:26:13;8.82;;;4.00;;
16029;SDS011;34770;49.272;11.070;2023-09-30T02:28:39;8.38;;;4.78;;
16029;SDS011;34770;49.272;11.070;2023-09-30T02:31:05;8.40;;;4.15;;
16029;SDS011;34770;49.272;11.070;2023-09-30T02:33:32;10.30;;;4.40;;
16029;SDS011;34770;49.272;11.070;2023-09-30T02:36:00;9.45;;;4.68;;
16029;SDS011;34770;49.272;11.070;2023-09-30T02:38:26;9.57;;;4.70;;
16029;SDS011;34770;49.272;11.070;2023-09-30T02:40:51;9.98;;;4.38;;
16029;SDS011;34770;49.272;11.070;2023-09-30T02:43:17;7.05;;;4.50;;
16029;SDS011;34770;49.272;11.070;2023-09-30T02:45:42;8.63;;;4.78;;
16029;SDS011;34770;49.272;11.070;2023-09-30T02:48:08;6.20;;;4.15;;
16029;SDS011;34770;49.272;11.070;2023-09-30T02:50:34;6.80;;;4.10;;
16029;SDS011;34770;49.272;11.070;2023-09-30T02:52:59;9.93;;;4.75;;
16029;SDS011;34770;49.272;11.070;2023-09-30T02:55:25;7.95;;;3.70;;
16029;SDS011;34770;49.272;11.070;2023-09-30T02:57:50;8.20;;;3.83;;
16029;SDS011;34770;49.272;11.070;2023-09-30T03:00:16;9.25;;;4.07;;
16029;SDS011;34770;49.272;11.070;2023-09-30T03:02:48;8.70;;;4.50;;
16029;SDS011;34770;49.272;11.070;2023-09-30T03:05:14;8.43;;;4.28;;
16029;SDS011;34770;49.272;11.070;2023-09-30T03:07:40;9.75;;;5.18;;
16029;SDS011;34770;49.272;11.070;2023-09-30T03:10:06;10.18;;;4.70;;
16029;SDS011;34770;49.272;11.070;2023-09-30T03:12:33;10.40;;;5.28;;
16029;SDS011;34770;49.272;11.070;2023-09-30T03:14:59;8.40;;;4.20;;
16029;SDS011;34770;49.272;11.070;2023-09-30T03:17:29;8.38;;;3.83;;
16029;SDS011;34770;49.272;11.070;2023-09-30T03:19:54;7.50;;;4.05;;
16029;SDS011;34770;49.272;11.070;2023-09-30T03:22:22;10.30;;;4.57;;
16029;SDS011;34770;49.272;11.070;2023-09-30T03:24:47;9.43;;;4.55;;
16029;SDS011;34770;49.272;11.070;2023-09-30T03:27:13;13.82;;;6.18;;
16029;SDS011;34770;49.272;11.070;2023-09-30T03:29:39;5.22;;;2.95;;
16029;SDS011;34770;49.272;11.070;2023-09-30T03:32:06;5.15;;;3.10;;
16029;SDS011;34770;49.272;11.070;2023-09-30T03:34:31;4.88;;;2.88;;
16029;SDS011;34770;49.272;11.070;2023-09-30T03:36:57;6.65;;;3.30;;
16029;SDS011;34770;49.272;11.070;2023-09-30T03:39:25;5.68;;;2.72;;
16029;SDS011;34770;49.272;11.070;2023-09-30T03:41:55;6.47;;;3.42;;
16029;SDS011;34770;49.272;11.070;2023-09-30T03:44:22;4.45;;;2.53;;
16029;SDS011;34770;49.272;11.070;2023-09-30T03:46:51;3.45;;;2.17;;
16029;SDS011;34770;49.272;11.070;2023-09-30T03:49:16;2.42;;;1.98;;
16029;SDS011;34770;49.272;11.070;2023-09-30T03:51:45;3.08;;;1.55;;
16029;SDS011;34770;49.272;11.070;2023-09-30T03:54:10;2.40;;;1.38;;
16029;SDS011;34770;49.272;11.070;2023-09-30T03:56:36;2.05;;;1.27;;
16029;SDS011;34770;49.272;11.070;2023-09-30T03:59:03;1.13;;;1.05;;
16029;SDS011;34770;49.272;11.070;2023-09-30T04:01:29;1.13;;;1.02;;
16029;SDS011;34770;49.272;11.070;2023-09-30T04:03:55;1.70;;;0.98;;
16029;SDS011;34770;49.272;11.070;2023-09-30T04:06:21;1.90;;;0.80;;
16029;SDS011;34770;49.272;11.070;2023-09-30T04:08:47;2.97;;;2.08;;
16029;SDS011;34770;49.272;11.070;2023-09-30T04:11:12;3.67;;;1.45;;
16029;SDS011;34770;49.272;11.070;2023-09-30T04:13:42;2.38;;;1.58;;
16029;SDS011;34770;49.272;11.070;2023-09-30T04:16:09;2.83;;;1.80;;
16029;SDS011;34770;49.272;11.070;2023-09-30T04:18:35;3.67;;;1.88;;
16029;SDS011;34770;49.272;11.070;2023-09-30T04:21:00;2.13;;;1.38;;
16029;SDS011;34770;49.272;11.070;2023-09-30T04:23:26;3.60;;;2.40;;
16029;SDS011;34770;49.272;11.070;2023-09-30T04:25:52;5.10;;;2.72;;
16029;SDS011;34770;49.272;11.070;2023-09-30T04:28:18;5.43;;;2.67;;
16029;SDS011;34770;49.272;11.070;2023-09-30T04:30:46;4.00;;;2.63;;
16029;SDS011;34770;49.272;11.070;2023-09-30T04:33:15;5.43;;;2.35;;
16029;SDS011;34770;49.272;11.070;2023-09-30T04:35:42;4.60;;;2.75;;
16029;SDS011;34770;49.272;11.070;2023-09-30T04:38:09;4.30;;;2.47;;
16029;SDS011;34770;49.272;11.070;2023-09-30T04:40:35;3.33;;;2.40;;
16029;SDS011;34770;49.272;11.070;2023-09-30T04:43:01;3.80;;;2.28;;
16029;SDS011;34770;49.272;11.070;2023-09-30T04:45:26;7.07;;;3.22;;
16029;SDS011;34770;49.272;11.070;2023-09-30T04:47:55;3.47;;;2.45;;
16029;SDS011;34770;49.272;11.070;2023-09-30T04:50:23;5.28;;;2.65;;
16029;SDS011;34770;49.272;11.070;2023-09-30T04:52:49;4.35;;;2.47;;
16029;SDS011;34770;49.272;11.070;2023-09-30T04:55:16;2.65;;;2.45;;
16029;SDS011;34770;49.272;11.070;2023-09-30T04:57:42;5.05;;;3.63;;
16029;SDS011;34770;49.272;11.070;2023-09-30T05:00:10;4.65;;;2.63;;
16029;SDS011;34770;49.272;11.070;2023-09-30T05:02:37;5.30;;;2.90;;
16029;SDS011;34770;49.272;11.070;2023-09-30T05:05:02;4.75;;;3.22;;
16029;SDS011;34770;49.272;11.070;2023-09-30T05:07:31;5.60;;;3.03;;
16029;SDS011;34770;49.272;11.070;2023-09-30T05:09:56;5.45;;;2.97;;
16029;SDS011;34770;49.272;11.070;2023-09-30T05:12:22;5.32;;;3.00;;
16029;SDS011;34770;49.272;11.070;2023-09-30T05:14:48;8.10;;;2.67;;
16029;SDS011;34770;49.272;11.070;2023-09-30T05:17:13;6.60;;;2.88;;
16029;SDS011;34770;49.272;11.070;2023-09-30T05:19:39;7.80;;;2.92;;
16029;SDS011;34770;49.272;11.070;2023-09-30T05:22:04;6.03;;;2.90;;
16029;SDS011;34770;49.272;11.070;2023-09-30T05:24:30;6.10;;;3.00;;
16029;SDS011;34770;49.272;11.070;2023-09-30T05:26:56;5.03;;;2.28;;
16029;SDS011;34770;49.272;11.070;2023-09-30T05:29:22;6.75;;;2.95;;
16029;SDS011;34770;49.272;11.070;2023-09-30T05:31:48;4.95;;;2.90;;
16029;SDS011;34770;49.272;11.070;2023-09-30T05:34:13;4.55;;;2.28;;
16029;SDS011;34770;49.272;11.070;2023-09-30T05:36:39;2.15;;;1.52;;
16029;SDS011;34770;49.272;11.070;2023-09-30T05:39:07;2.75;;;1.92;;
16029;SDS011;34770;49.272;11.070;2023-09-30T05:41:35;1.90;;;1.65;;
16029;SDS011;34770;49.272;11.070;2023-09-30T05:44:03;2.33;;;1.52;;
16029;SDS011;34770;49.272;11.070;2023-09-30T05:46:30;1.67;;;1.23;;
16029;SDS011;34770;49.272;11.070;2023-09-30T05:48:55;2.03;;;1.90;;
16029;SDS011;34770;49.272;11.070;2023-09-30T05:51:21;3.13;;;1.35;;
16029;SDS011;34770;49.272;11.070;2023-09-30T05:53:50;1.33;;;1.23;;
16029;SDS011;34770;49.272;11.070;2023-09-30T05:56:15;1.42;;;1.33;;
16029;SDS011;34770;49.272;11.070;2023-09-30T05:58:41;2.00;;;1.00;;
16029;SDS011;34770;49.272;11.070;2023-09-30T06:01:10;1.08;;;0.98;;
16029;SDS011;34770;49.272;11.070;2023-09-30T06:03:36;0.95;;;0.95;;
16029;SDS011;34770;49.272;11.070;2023-09-30T06:06:10;1.90;;;1.05;;
16029;SDS011;34770;49.272;11.070;2023-09-30T06:08:37;1.77;;;1.20;;
16029;SDS011;34770;49.272;11.070;2023-09-30T06:11:02;0.82;;;0.82;;
16029;SDS011;34770;49.272;11.070;2023-09-30T06:13:28;1.00;;;0.90;;
16029;SDS011;34770;49.272;11.070;2023-09-30T06:15:56;1.23;;;1.10;;
16029;SDS011;34770;49.272;11.070;2023-09-30T06:18:22;1.10;;;1.00;;
16029;SDS011;34770;49.272;11.070;2023-09-30T06:20:48;1.00;;;0.98;;
16029;SDS011;34770;49.272;11.070;2023-09-30T06:23:14;1.00;;;1.00;;
16029;SDS011;34770;49.272;11.070;2023-09-30T06:25:39;1.08;;;0.98;;
16029;SDS011;34770;49.272;11.070;2023-09-30T06:28:05;1.45;;;1.10;;
16029;SDS011;34770;49.272;11.070;2023-09-30T06:30:32;1.48;;;1.38;;
16029;SDS011;34770;49.272;11.070;2023-09-30T06:32:59;2.33;;;1.17;;
16029;SDS011;34770;49.272;11.070;2023-09-30T06:35:26;1.45;;;1.30;;
16029;SDS011;34770;49.272;11.070;2023-09-30T06:37:52;1.33;;;1.20;;
16029;SDS011;34770;49.272;11.070;2023-09-30T06:40:17;2.00;;;1.80;;
16029;SDS011;34770;49.272;11.070;2023-09-30T06:42:44;2.15;;;1.30;;
16029;SDS011;34770;49.272;11.070;2023-09-30T06:45:09;2.45;;;1.67;;
16029;SDS011;34770;49.272;11.070;2023-09-30T06:47:35;3.30;;;1.83;;
16029;SDS011;34770;49.272;11.070;2023-09-30T06:50:02;3.38;;;1.55;;
16029;SDS011;34770;49.272;11.070;2023-09-30T06:52:37;3.00;;;1.98;;
16029;SDS011;34770;49.272;11.070;2023-09-30T06:55:03;3.83;;;2.20;;
16029;SDS011;34770;49.272;11.070;2023-09-30T06:57:33;2.45;;;1.70;;
16029;SDS011;34770;49.272;11.070;2023-09-30T06:59:59;2.92;;;1.75;;
16029;SDS011;34770;49.272;11.070;2023-09-30T07:02:24;3.92;;;2.25;;
16029;SDS011;34770;49.272;11.070;2023-09-30T07:04:50;3.17;;;1.98;;
16029;SDS011;34770;49.272;11.070;2023-09-30T07:07:15;2.88;;;1.98;;
16029;SDS011;34770;49.272;11.070;2023-09-30T07:09:41;3.97;;;2.63;;
16029;SDS011;34770;49.272;11.070;2023-09-30T07:12:08;2.75;;;2.13;;
16029;SDS011;34770;49.272;11.070;2023-09-30T07:14:33;3.50;;;1.83;;
16029;SDS011;34770;49.272;11.070;2023-09-30T07:16:59;2.38;;;2.17;;
16029;SDS011;34770;49.272;11.070;2023-09-30T07:19:24;2.38;;;2.08;;
16029;SDS011;34770;49.272;11.070;2023-09-30T07:21:49;2.63;;;2.00;;
16029;SDS011;34770;49.272;11.070;2023-09-30T07:24:15;2.75;;;2.00;;
16029;SDS011;34770;49.272;11.070;2023-09-30T07:26:40;4.60;;;2.42;;
16029;SDS011;34770;49.272;11.070;2023-09-30T07:29:05;5.03;;;2.22;;
16029;SDS011;34770;49.272;11.070;2023-09-30T07:31:34;3.45;;;2.17;;
16029;SDS011;34770;49.272;11.070;2023-09-30T07:34:00;4.18;;;2.67;;
16029;SDS011;34770;49.272;11.070;2023-09-30T07:36:26;3.45;;;2.13;;
16029;SDS011;34770;49.272;11.070;2023-09-30T07:38:51;4.03;;;2.55;;
16029;SDS011;34770;49.272;11.070;2023-09-30T07:41:17;4.20;;;2.33;;
16029;SDS011;34770;49.272;11.070;2023-09-30T07:43:43;2.72;;;2.15;;
16029;SDS011;34770;49.272;11.070;2023-09-30T07:46:08;4.32;;;2.65;;
16029;SDS011;34770;49.272;11.070;2023-09-30T07:48:35;4.00;;;2.50;;
16029;SDS011;34770;49.272;11.070;2023-09-30T07:51:01;7.28;;;3.13;;
16029;SDS011;34770;49.272;11.070;2023-09-30T07:53:27;3.10;;;2.33;;
16029;SDS011;34770;49.272;11.070;2023-09-30T07:55:53;5.88;;;2.97;;
16029;SDS011;34770;49.272;11.070;2023-09-30T07:58:19;4.30;;;2.40;;
16029;SDS011;34770;49.272;11.070;2023-09-30T08:00:45;7.40;;;2.75;;
16029;SDS011;34770;49.272;11.070;2023-09-30T08:03:10;6.57;;;2.40;;
16029;SDS011;34770;49.272;11.070;2023-09-30T08:05:36;4.68;;;2.50;;
16029;SDS011;34770;49.272;11.070;2023-09-30T08:08:02;7.82;;;3.08;;
16029;SDS011;34770;49.272;11.070;2023-09-30T08:10:29;5.00;;;2.65;;
16029;SDS011;34770;49.272;11.070;2023-09-30T08:12:56;6.07;;;2.35;;
16029;SDS011;34770;49.272;11.070;2023-09-30T08:15:23;3.85;;;2.45;;
16029;SDS011;34770;49.272;11.070;2023-09-30T08:17:49;5.85;;;2.80;;
16029;SDS011;34770;49.272;11.070;2023-09-30T08:20:14;4.45;;;2.42;;
16029;SDS011;34770;49.272;11.070;2023-09-30T08:22:40;5.75;;;2.35;;
16029;SDS011;34770;49.272;11.070;2023-09-30T08:25:06;7.07;;;2.70;;
16029;SDS011;34770;49.272;11.070;2023-09-30T08:27:32;3.78;;;2.40;;
16029;SDS011;34770;49.272;11.070;2023-09-30T08:29:57;3.30;;;2.42;;
16029;SDS011;34770;49.272;11.070;2023-09-30T08:32:22;5.10;;;2.58;;
16029;SDS011;34770;49.272;11.070;2023-09-30T08:34:48;3.88;;;2.70;;
16029;SDS011;34770;49.272;11.070;2023-09-30T08:37:14;5.93;;;2.80;;
16029;SDS011;34770;49.272;11.070;2023-09-30T08:39:39;4.93;;;2.65;;
16029;SDS011;34770;49.272;11.070;2023-09-30T08:42:14;7.38;;;2.80;;
16029;SDS011;34770;49.272;11.070;2023-09-30T08:44:40;5.38;;;2.65;;
16029;SDS011;34770;49.272;11.070;2023-09-30T08:47:06;6.63;;;2.70;;
16029;SDS011;34770;49.272;11.070;2023-09-30T08:49:35;6.00;;;3.92;;
16029;SDS011;34770;49.272;11.070;2023-09-30T08:52:05;11.13;;;3.72;;
16029;SDS011;34770;49.272;11.070;2023-09-30T08:54:31;6.93;;;3.40;;
16029;SDS011;34770;49.272;11.070;2023-09-30T08:56:57;6.05;;;3.00;;
16029;SDS011;34770;49.272;11.070;2023-09-30T08:59:23;5.45;;;3.05;;
16029;SDS011;34770;49.272;11.070;2023-09-30T09:01:50;5.63;;;2.65;;
16029;SDS011;34770;49.272;11.070;2023-09-30T09:04:16;5.90;;;2.80;;
16029;SDS011;34770;49.272;11.070;2023-09-30T09:06:44;6.85;;;3.53;;
16029;SDS011;34770;49.272;11.070;2023-09-30T09:09:14;3.42;;;2.50;;
16029;SDS011;34770;49.272;11.070;2023-09-30T09:11:41;5.70;;;2.53;;
16029;SDS011;34770;49.272;11.070;2023-09-30T09:14:07;4.18;;;2.80;;
16029;SDS011;34770;49.272;11.070;2023-09-30T09:16:33;4.93;;;2.63;;
16029;SDS011;34770;49.272;11.070;2023-09-30T09:18:59;4.82;;;2.75;;
16029;SDS011;34770;49.272;11.070;2023-09-30T09:21:27;5.55;;;2.60;;
16029;SDS011;34770;49.272;11.070;2023-09-30T09:23:53;4.95;;;2.67;;
16029;SDS011;34770;49.272;11.070;2023-09-30T09:28:49;4.43;;;2.55;;
16029;SDS011;34770;49.272;11.070;2023-09-30T09:31:21;6.38;;;2.60;;
16029;SDS011;34770;49.272;11.070;2023-09-30T09:33:50;4.05;;;2.65;;
16029;SDS011;34770;49.272;11.070;2023-09-30T09:36:16;4.38;;;2.75;;
16029;SDS011;34770;49.272;11.070;2023-09-30T09:38:52;4.35;;;2.50;;
16029;SDS011;34770;49.272;11.070;2023-09-30T09:41:19;4.88;;;2.42;;
16029;SDS011;34770;49.272;11.070;2023-09-30T09:43:45;3.85;;;2.33;;
16029;SDS011;34770;49.272;11.070;2023-09-30T09:46:14;5.93;;;2.42;;
16029;SDS011;34770;49.272;11.070;2023-09-30T09:48:41;7.55;;;2.42;;
16029;SDS011;34770;49.272;11.070;2023-09-30T09:51:07;5.72;;;2.40;;
16029;SDS011;34770;49.272;11.070;2023-09-30T09:53:35;5.75;;;2.30;;
16029;SDS011;34770;49.272;11.070;2023-09-30T09:56:04;5.28;;;2.05;;
16029;SDS011;34770;49.272;11.070;2023-09-30T09:58:34;4.30;;;2.30;;
16029;SDS011;34770;49.272;11.070;2023-09-30T10:01:01;4.03;;;2.30;;
16029;SDS011;34770;49.272;11.070;2023-09-30T10:03:27;5.78;;;2.90;;
16029;SDS011;34770;49.272;11.070;2023-09-30T10:05:53;5.03;;;2.83;;
16029;SDS011;34770;49.272;11.070;2023-09-30T10:08:19;4.57;;;2.30;;
16029;SDS011;34770;49.272;11.070;2023-09-30T10:15:58;4.65;;;2.35;;
16029;SDS011;34770;49.272;11.070;2023-09-30T10:29:08;4.90;;;2.65;;
16029;SDS011;34770;49.272;11.070;2023-09-30T10:31:34;7.10;;;2.85;;
16029;SDS011;34770;49.272;11.070;2023-09-30T10:34:21;5.95;;;2.53;;
16029;SDS011;34770;49.272;11.070;2023-09-30T10:36:46;5.18;;;2.53;;
16029;SDS011;34770;49.272;11.070;2023-09-30T10:39:13;5.88;;;2.75;;
16029;SDS011;34770;49.272;11.070;2023-09-30T10:46:53;4.72;;;2.58;;
16029;SDS011;34770;49.272;11.070;2023-09-30T10:51:51;4.63;;;2.72;;
16029;SDS011;34770;49.272;11.070;2023-09-30T10:54:28;8.35;;;3.67;;
16029;SDS011;34770;49.272;11.070;2023-09-30T10:56:54;5.85;;;3.58;;
16029;SDS011;34770;49.272;11.070;2023-09-30T10:59:24;6.57;;;3.05;;
16029;SDS011;34770;49.272;11.070;2023-09-30T11:01:51;5.43;;;3.30;;
16029;SDS011;34770;49.272;11.070;2023-09-30T11:04:18;6.10;;;3.53;;
16029;SDS011;34770;49.272;11.070;2023-09-30T11:06:44;4.57;;;2.95;;
16029;SDS011;34770;49.272;11.070;2023-09-30T11:09:15;8.85;;;3.35;;
16029;SDS011;34770;49.272;11.070;2023-09-30T11:11:47;8.55;;;4.20;;
16029;SDS011;34770;49.272;11.070;2023-09-30T11:16:50;9.32;;;3.70;;
16029;SDS011;34770;49.272;11.070;2023-09-30T11:19:17;6.60;;;3.30;;
16029;SDS011;34770;49.272;11.070;2023-09-30T11:21:46;5.05;;;2.97;;
16029;SDS011;34770;49.272;11.070;2023-09-30T11:24:15;7.13;;;3.38;;
16029;SDS011;34770;49.272;11.070;2023-09-30T11:26:41;7.00;;;3.15;;
16029;SDS011;34770;49.272;11.070;2023-09-30T11:31:52;9.52;;;3.83;;
16029;SDS011;34770;49.272;11.070;2023-09-30T11:34:17;7.60;;;4.00;;
16029;SDS011;34770;49.272;11.070;2023-09-30T11:36:47;6.32;;;3.65;;
16029;SDS011;34770;49.272;11.070;2023-09-30T11:39:25;8.68;;;3.80;;
16029;SDS011;34770;49.272;11.070;2023-09-30T11:41:51;9.35;;;3.90;;
16029;SDS011;34770;49.272;11.070;2023-09-30T11:44:17;6.57;;;3.92;;
16029;SDS011;34770;49.272;11.070;2023-09-30T11:47:01;6.35;;;3.85;;
16029;SDS011;34770;49.272;11.070;2023-09-30T11:51:57;8.00;;;3.92;;
16029;SDS011;34770;49.272;11.070;2023-09-30T11:54:34;7.18;;;3.67;;
16029;SDS011;34770;49.272;11.070;2023-09-30T11:57:09;5.35;;;3.03;;
16029;SDS011;34770;49.272;11.070;2023-09-30T11:59:36;7.63;;;3.17;;
16029;SDS011;34770;49.272;11.070;2023-09-30T12:02:03;12.05;;;4.13;;
16029;SDS011;34770;49.272;11.070;2023-09-30T12:04:30;8.43;;;3.83;;
16029;SDS011;34770;49.272;11.070;2023-09-30T12:06:56;7.50;;;3.40;;
16029;SDS011;34770;49.272;11.070;2023-09-30T12:09:23;7.38;;;3.55;;
16029;SDS011;34770;49.272;11.070;2023-09-30T12:11:50;7.22;;;4.00;;
16029;SDS011;34770;49.272;11.070;2023-09-30T12:14:17;5.68;;;3.28;;
16029;SDS011;34770;49.272;11.070;2023-09-30T12:16:42;8.75;;;3.80;;
16029;SDS011;34770;49.272;11.070;2023-09-30T12:19:10;9.45;;;3.75;;
16029;SDS011;34770;49.272;11.070;2023-09-30T12:21:36;4.82;;;2.90;;
16029;SDS011;34770;49.272;11.070;2023-09-30T12:24:01;5.90;;;3.88;;
16029;SDS011;34770;49.272;11.070;2023-09-30T12:26:28;5.72;;;3.35;;
16029;SDS011;34770;49.272;11.070;2023-09-30T12:28:53;6.18;;;3.60;;
16029;SDS011;34770;49.272;11.070;2023-09-30T12:31:19;5.75;;;3.53;;
16029;SDS011;34770;49.272;11.070;2023-09-30T12:33:45;7.13;;;3.60;;
16029;SDS011;34770;49.272;11.070;2023-09-30T12:36:15;6.43;;;3.50;;
16029;SDS011;34770;49.272;11.070;2023-09-30T12:38:40;6.45;;;3.58;;
16029;SDS011;34770;49.272;11.070;2023-09-30T12:41:06;7.28;;;3.80;;
16029;SDS011;34770;49.272;11.070;2023-09-30T12:43:31;6.15;;;3.60;;
16029;SDS011;34770;49.272;11.070;2023-09-30T12:45:56;7.03;;;3.20;;
16029;SDS011;34770;49.272;11.070;2023-09-30T12:48:22;8.52;;;3.45;;
16029;SDS011;34770;49.272;11.070;2023-09-30T12:50:47;8.23;;;3.63;;
16029;SDS011;34770;49.272;11.070;2023-09-30T12:53:13;4.30;;;2.97;;
16029;SDS011;34770;49.272;11.070;2023-09-30T12:55:38;6.15;;;3.38;;
16029;SDS011;34770;49.272;11.070;2023-09-30T12:58:04;5.95;;;3.30;;
16029;SDS011;34770;49.272;11.070;2023-09-30T13:00:30;8.40;;;4.28;;
16029;SDS011;34770;49.272;11.070;2023-09-30T13:02:57;6.25;;;3.30;;
16029;SDS011;34770;49.272;11.070;2023-09-30T13:05:23;9.10;;;4.10;;
16029;SDS011;34770;49.272;11.070;2023-09-30T13:07:50;7.68;;;3.78;;
16029;SDS011;34770;49.272;11.070;2023-09-30T13:10:15;6.03;;;3.10;;
16029;SDS011;34770;49.272;11.070;2023-09-30T13:12:40;7.60;;;3.85;;
16029;SDS011;34770;49.272;11.070;2023-09-30T13:15:06;7.57;;;3.53;;
16029;SDS011;34770;49.272;11.070;2023-09-30T13:17:33;8.75;;;3.92;;
16029;SDS011;34770;49.272;11.070;2023-09-30T13:19:59;6.53;;;3.30;;
16029;SDS011;34770;49.272;11.070;2023-09-30T13:22:25;5.13;;;3.45;;
16029;SDS011;34770;49.272;11.070;2023-09-30T13:24:50;10.35;;;3.78;;
16029;SDS011;34770;49.272;11.070;2023-09-30T13:27:16;9.55;;;4.20;;
16029;SDS011;34770;49.272;11.070;2023-09-30T13:29:42;8.75;;;4.35;;
16029;SDS011;34770;49.272;11.070;2023-09-30T13:32:09;10.02;;;4.93;;
16029;SDS011;34770;49.272;11.070;2023-09-30T13:34:35;8.68;;;4.85;;
16029;SDS011;34770;49.272;11.070;2023-09-30T13:37:00;9.60;;;4.40;;
16029;SDS011;34770;49.272;11.070;2023-09-30T13:39:25;7.50;;;3.97;;
16029;SDS011;34770;49.272;11.070;2023-09-30T13:41:51;6.78;;;3.78;;
16029;SDS011;34770;49.272;11.070;2023-09-30T13:44:16;8.52;;;4.10;;
16029;SDS011;34770;49.272;11.070;2023-09-30T13:46:43;8.07;;;5.00;;
16029;SDS011;34770;49.272;11.070;2023-09-30T13:49:08;8.05;;;4.40;;
16029;SDS011;34770;49.272;11.070;2023-09-30T13:51:34;6.43;;;4.07;;
16029;SDS011;34770;49.272;11.070;2023-09-30T13:53:59;11.32;;;3.90;;
16029;SDS011;34770;49.272;11.070;2023-09-30T13:56:25;6.95;;;3.97;;
16029;SDS011;34770;49.272;11.070;2023-09-30T13:58:50;5.32;;;3.55;;
16029;SDS011;34770;49.272;11.070;2023-09-30T14:01:15;9.60;;;4.38;;
16029;SDS011;34770;49.272;11.070;2023-09-30T14:03:41;8.13;;;3.65;;
16029;SDS011;34770;49.272;11.070;2023-09-30T14:06:13;6.13;;;3.60;;
16029;SDS011;34770;49.272;11.070;2023-09-30T14:08:39;7.47;;;3.92;;
16029;SDS011;34770;49.272;11.070;2023-09-30T14:11:07;7.70;;;3.95;;
16029;SDS011;34770;49.272;11.070;2023-09-30T14:13:33;6.88;;;4.18;;
16029;SDS011;34770;49.272;11.070;2023-09-30T14:15:59;6.00;;;3.63;;
16029;SDS011;34770;49.272;11.070;2023-09-30T14:18:24;7.18;;;3.85;;
16029;SDS011;34770;49.272;11.070;2023-09-30T14:20:49;5.95;;;3.67;;
16029;SDS011;34770;49.272;11.070;2023-09-30T14:23:15;6.45;;;3.83;;
16029;SDS011;34770;49.272;11.070;2023-09-30T14:25:41;9.40;;;4.25;;
16029;SDS011;34770;49.272;11.070;2023-09-30T14:28:06;8.05;;;3.95;;
16029;SDS011;34770;49.272;11.070;2023-09-30T14:30:32;7.43;;;3.92;;
16029;SDS011;34770;49.272;11.070;2023-09-30T14:32:58;6.43;;;4.22;;
16029;SDS011;34770;49.272;11.070;2023-09-30T14:35:23;6.43;;;3.55;;
16029;SDS011;34770;49.272;11.070;2023-09-30T14:37:49;7.13;;;4.25;;
16029;SDS011;34770;49.272;11.070;2023-09-30T14:40:14;6.07;;;3.75;;
16029;SDS011;34770;49.272;11.070;2023-09-30T14:42:41;6.47;;;4.03;;
16029;SDS011;34770;49.272;11.070;2023-09-30T14:45:07;5.38;;;3.78;;
16029;SDS011;34770;49.272;11.070;2023-09-30T14:47:33;8.70;;;4.20;;
16029;SDS011;34770;49.272;11.070;2023-09-30T14:49:58;4.97;;;3.13;;
16029;SDS011;34770;49.272;11.070;2023-09-30T14:52:26;6.00;;;3.08;;
16029;SDS011;34770;49.272;11.070;2023-09-30T14:54:52;5.22;;;3.60;;
16029;SDS011;34770;49.272;11.070;2023-09-30T14:57:17;6.45;;;3.35;;
16029;SDS011;34770;49.272;11.070;2023-09-30T14:59:45;5.60;;;3.75;;
16029;SDS011;34770;49.272;11.070;2023-09-30T15:02:10;7.13;;;4.20;;
16029;SDS011;34770;49.272;11.070;2023-09-30T15:04:39;7.03;;;3.65;;
16029;SDS011;34770;49.272;11.070;2023-09-30T15:07:04;6.32;;;3.90;;